Time;durP1;ratioP1;P1;durP2;ratioP2;P2;SDS_P1;SDS_P2;PMS_P1;PMS_P2;Temp;Humidity;BMP_temperature;BMP_pressure;BME280_temperature;BME280_humidity;BME280_pressure;Samples;Min_cycle;Max_cycle;Signal;HPM_P1;HPM_P2
2021/09/23 00:00:17;;;;;;;60.75;27.75;;;;;;;;;;5043299;28;20056;-70
2021/09/23 00:05:12;;;;;;;64.80;30.02;;;;;;;;;;5057428;28;20127;-68
2021/09/23 00:07:39;;;;;;;71.55;29.88;;;;;;;;;;5057414;28;20089;-68
2021/09/23 00:10:07;;;;;;;67.75;29.58;;;;;;;;;;5065263;28;20690;-70
2021/09/23 00:12:33;;;;;;;68.15;29.10;;;;;;;;;;5057782;28;20557;-68
2021/09/23 00:14:59;;;;;;;67.13;30.85;;;;;;;;;;5042953;28;20127;-69
2021/09/23 00:17:25;;;;;;;68.75;30.02;;;;;;;;;;5037455;28;20660;-69
2021/09/23 00:19:50;;;;;;;74.13;31.25;;;;;;;;;;5038133;28;20033;-69
2021/09/23 00:22:16;;;;;;;71.90;30.35;;;;;;;;;;5034680;28;20043;-69
2021/09/23 00:24:41;;;;;;;82.55;32.35;;;;;;;;;;5009315;28;20041;-69
2021/09/23 00:27:09;;;;;;;68.53;31.73;;;;;;;;;;5007930;28;20032;-70
2021/09/23 00:29:35;;;;;;;65.57;28.80;;;;;;;;;;5017529;28;20029;-70
2021/09/23 00:32:00;;;;;;;75.57;30.48;;;;;;;;;;5036749;28;21112;-70
2021/09/23 00:34:29;;;;;;;71.38;30.75;;;;;;;;;;5032053;28;20119;-68
2021/09/23 00:36:55;;;;;;;78.78;33.03;;;;;;;;;;5017984;28;20120;-71
2021/09/23 00:39:23;;;;;;;73.65;33.13;;;;;;;;;;5008131;28;20098;-70
2021/09/23 00:41:51;;;;;;;73.15;32.22;;;;;;;;;;5025892;28;20033;-68
2021/09/23 00:44:18;;;;;;;70.70;32.78;;;;;;;;;;5031647;28;20044;-70
2021/09/23 00:46:45;;;;;;;74.93;33.38;;;;;;;;;;5036972;28;20032;-70
2021/09/23 00:49:11;;;;;;;77.05;34.28;;;;;;;;;;5020399;28;20043;-70
2021/09/23 00:51:37;;;;;;;66.90;30.38;;;;;;;;;;5034884;28;20056;-69
2021/09/23 00:54:02;;;;;;;67.82;30.98;;;;;;;;;;5021724;28;20175;-70
2021/09/23 00:56:28;;;;;;;68.75;28.58;;;;;;;;;;5029348;28;20179;-69
2021/09/23 00:58:54;;;;;;;74.95;30.52;;;;;;;;;;5034547;28;22091;-69
2021/09/23 01:01:22;;;;;;;71.47;30.10;;;;;;;;;;5017436;28;20037;-69
2021/09/23 01:03:50;;;;;;;65.13;29.83;;;;;;;;;;5019956;28;20037;-69
2021/09/23 01:06:16;;;;;;;61.30;29.17;;;;;;;;;;5034908;28;20029;-69
2021/09/23 01:08:52;;;;;;;54.85;28.90;;;;;;;;;;5033686;28;20029;-70
2021/09/23 01:11:20;;;;;;;59.38;28.55;;;;;;;;;;5035445;28;20066;-67
2021/09/23 01:13:45;;;;;;;57.67;27.42;;;;;;;;;;5031977;28;20049;-69
2021/09/23 01:16:14;;;;;;;63.42;29.80;;;;;;;;;;5035532;28;20036;-68
2021/09/23 01:18:40;;;;;;;68.93;29.88;;;;;;;;;;5040675;28;20670;-68
2021/09/23 01:21:09;;;;;;;60.78;28.90;;;;;;;;;;5037467;28;20044;-69
2021/09/23 01:23:38;;;;;;;66.00;28.92;;;;;;;;;;5026178;28;20060;-69
2021/09/23 01:26:07;;;;;;;59.30;27.55;;;;;;;;;;5039403;28;20478;-69
2021/09/23 01:28:35;;;;;;;63.42;27.92;;;;;;;;;;5035476;28;20040;-70
2021/09/23 01:31:01;;;;;;;72.88;29.55;;;;;;;;;;5037223;28;20047;-68
2021/09/23 01:33:27;;;;;;;73.93;31.13;;;;;;;;;;5041852;28;20140;-67
2021/09/23 01:35:52;;;;;;;72.65;28.58;;;;;;;;;;5036831;28;20036;-67
2021/09/23 01:38:18;;;;;;;73.45;30.17;;;;;;;;;;5023213;28;20626;-67
2021/09/23 01:40:43;;;;;;;64.80;28.77;;;;;;;;;;5039178;28;20033;-69
2021/09/23 01:43:09;;;;;;;76.82;31.00;;;;;;;;;;5034617;28;20545;-68
2021/09/23 01:45:36;;;;;;;70.18;32.10;;;;;;;;;;5006513;28;20119;-69
2021/09/23 01:48:02;;;;;;;75.00;31.27;;;;;;;;;;5038921;28;20029;-68
2021/09/23 01:50:27;;;;;;;79.68;32.58;;;;;;;;;;5038617;28;20164;-68
2021/09/23 01:52:53;;;;;;;90.35;33.85;;;;;;;;;;5041277;28;20935;-69
2021/09/23 01:55:19;;;;;;;82.30;34.47;;;;;;;;;;5023675;28;20044;-67
2021/09/23 01:57:44;;;;;;;85.50;37.33;;;;;;;;;;5040016;28;20032;-69
2021/09/23 02:00:13;;;;;;;89.82;35.92;;;;;;;;;;5039562;28;20029;-68
2021/09/23 02:02:39;;;;;;;81.90;35.33;;;;;;;;;;5024924;28;20041;-68
2021/09/23 02:05:10;;;;;;;80.43;32.50;;;;;;;;;;5042443;28;20919;-68
2021/09/23 02:07:36;;;;;;;92.93;35.33;;;;;;;;;;5042676;28;20055;-64
2021/09/23 02:10:02;;;;;;;87.63;34.25;;;;;;;;;;5038254;28;20028;-66
2021/09/23 02:12:27;;;;;;;73.50;33.38;;;;;;;;;;5039307;28;20159;-67
2021/09/23 02:14:53;;;;;;;81.63;33.17;;;;;;;;;;5068969;28;20054;-66
2021/09/23 02:17:19;;;;;;;71.93;32.47;;;;;;;;;;5031604;28;20706;-67
2021/09/23 02:19:47;;;;;;;87.32;33.72;;;;;;;;;;5042876;28;20032;-66
2021/09/23 02:22:12;;;;;;;76.13;32.58;;;;;;;;;;5041808;28;20031;-66
2021/09/23 02:24:38;;;;;;;81.43;32.80;;;;;;;;;;5034023;28;20074;-64
2021/09/23 02:27:04;;;;;;;84.78;32.05;;;;;;;;;;5058654;28;20036;-70
2021/09/23 02:29:30;;;;;;;87.30;34.03;;;;;;;;;;5040384;28;20028;-69
2021/09/23 02:31:58;;;;;;;83.20;32.53;;;;;;;;;;5043097;28;20080;-68
2021/09/23 02:34:24;;;;;;;88.18;33.67;;;;;;;;;;5076878;28;20599;-68
2021/09/23 02:36:54;;;;;;;78.63;32.22;;;;;;;;;;5045457;28;20040;-68
2021/09/23 02:39:19;;;;;;;77.57;33.10;;;;;;;;;;5059471;28;20046;-68
2021/09/23 02:41:44;;;;;;;84.25;33.05;;;;;;;;;;5027229;28;20039;-68
2021/09/23 02:44:10;;;;;;;78.90;33.47;;;;;;;;;;5055012;28;20629;-69
2021/09/23 02:46:38;;;;;;;81.53;31.48;;;;;;;;;;5046002;28;20560;-67
2021/09/23 02:49:03;;;;;;;84.88;31.90;;;;;;;;;;5042855;28;20043;-70
2021/09/23 02:51:29;;;;;;;88.13;33.92;;;;;;;;;;5046031;28;20117;-68
2021/09/23 02:53:57;;;;;;;89.05;34.30;;;;;;;;;;5046762;28;20070;-67
2021/09/23 02:56:24;;;;;;;86.72;33.58;;;;;;;;;;5076914;28;20051;-69
2021/09/23 02:58:58;;;;;;;94.05;34.80;;;;;;;;;;5056964;28;20082;-68
2021/09/23 03:01:26;;;;;;;87.57;35.28;;;;;;;;;;5062868;28;20100;-67
2021/09/23 03:03:54;;;;;;;84.78;34.33;;;;;;;;;;5046523;28;20406;-69
2021/09/23 03:06:22;;;;;;;93.07;34.65;;;;;;;;;;5060248;28;20470;-66
2021/09/23 03:08:52;;;;;;;78.70;35.95;;;;;;;;;;5031441;28;20032;-68
2021/09/23 03:11:17;;;;;;;81.25;34.50;;;;;;;;;;5027398;28;20027;-69
2021/09/23 03:13:48;;;;;;;89.55;34.10;;;;;;;;;;5041920;28;20656;-68
2021/09/23 03:16:13;;;;;;;90.05;35.83;;;;;;;;;;5058564;28;20055;-68
2021/09/23 03:18:39;;;;;;;86.90;35.88;;;;;;;;;;5042050;28;20040;-67
2021/09/23 03:21:09;;;;;;;97.65;35.50;;;;;;;;;;5042493;28;20045;-68
2021/09/23 03:23:35;;;;;;;86.88;34.85;;;;;;;;;;5056614;28;20038;-71
2021/09/23 03:26:04;;;;;;;89.32;35.00;;;;;;;;;;5058670;28;20122;-65
2021/09/23 03:28:29;;;;;;;94.65;37.00;;;;;;;;;;5061223;28;20034;-68
2021/09/23 03:30:56;;;;;;;96.78;36.45;;;;;;;;;;5059396;28;20075;-70
2021/09/23 03:33:22;;;;;;;91.50;35.67;;;;;;;;;;5075108;28;20036;-68
2021/09/23 03:35:48;;;;;;;85.63;35.05;;;;;;;;;;5040531;28;20375;-67
2021/09/23 03:38:13;;;;;;;95.97;36.85;;;;;;;;;;5041386;28;20024;-69
2021/09/23 03:40:45;;;;;;;96.50;36.10;;;;;;;;;;5058660;28;20439;-66
2021/09/23 03:43:11;;;;;;;96.95;36.25;;;;;;;;;;5055375;28;20027;-65
2021/09/23 03:45:36;;;;;;;94.68;34.85;;;;;;;;;;5042033;28;20040;-69
2021/09/23 03:48:05;;;;;;;103.50;36.88;;;;;;;;;;5053970;28;20055;-69
2021/09/23 03:50:31;;;;;;;107.35;37.08;;;;;;;;;;5077676;28;20549;-69
2021/09/23 03:52:57;;;;;;;101.38;38.55;;;;;;;;;;5057645;28;20028;-68
2021/09/23 03:55:22;;;;;;;97.28;37.00;;;;;;;;;;5042005;28;20438;-69
2021/09/23 03:57:50;;;;;;;101.03;36.85;;;;;;;;;;5076931;28;20076;-65
2021/09/23 04:00:20;;;;;;;96.68;36.67;;;;;;;;;;5044870;28;20709;-66
2021/09/23 04:02:46;;;;;;;97.43;36.80;;;;;;;;;;5042459;28;20067;-65
2021/09/23 04:05:16;;;;;;;99.45;35.10;;;;;;;;;;5040593;28;20497;-67
2021/09/23 04:07:42;;;;;;;86.32;34.22;;;;;;;;;;5048401;28;20492;-67
2021/09/23 04:10:10;;;;;;;96.72;34.85;;;;;;;;;;5076439;28;20034;-70
2021/09/23 04:12:38;;;;;;;92.90;35.03;;;;;;;;;;5046117;28;20031;-68
2021/09/23 04:15:04;;;;;;;91.97;35.33;;;;;;;;;;5073756;28;20184;-67
2021/09/23 04:17:30;;;;;;;95.32;33.47;;;;;;;;;;5046441;28;20969;-70
2021/09/23 04:19:55;;;;;;;92.28;33.63;;;;;;;;;;5046522;28;20181;-67
2021/09/23 04:22:23;;;;;;;89.28;33.38;;;;;;;;;;5061077;28;20031;-70
2021/09/23 04:24:49;;;;;;;92.85;35.42;;;;;;;;;;5058183;28;20028;-69
2021/09/23 04:27:14;;;;;;;81.05;33.20;;;;;;;;;;5039921;28;20722;-69
2021/09/23 04:29:46;;;;;;;83.28;32.88;;;;;;;;;;5057105;28;20031;-70
2021/09/23 04:32:11;;;;;;;100.47;37.53;;;;;;;;;;5043262;28;20084;-68
2021/09/23 04:34:37;;;;;;;91.90;36.38;;;;;;;;;;5056450;28;20036;-68
2021/09/23 04:37:03;;;;;;;90.82;33.90;;;;;;;;;;5030196;28;20524;-69
2021/09/23 04:39:29;;;;;;;88.28;36.58;;;;;;;;;;5056449;28;20042;-70
2021/09/23 04:41:54;;;;;;;94.97;35.15;;;;;;;;;;5056705;28;21050;-64
2021/09/23 04:44:20;;;;;;;99.68;34.30;;;;;;;;;;5056717;28;20027;-69
2021/09/23 04:46:46;;;;;;;96.28;37.25;;;;;;;;;;5054176;28;20040;-68
2021/09/23 04:49:12;;;;;;;91.85;35.22;;;;;;;;;;5073735;28;20099;-68
2021/09/23 04:51:37;;;;;;;95.95;35.97;;;;;;;;;;5044465;28;20451;-69
2021/09/23 04:54:05;;;;;;;101.05;35.25;;;;;;;;;;5076010;28;20063;-71
2021/09/23 04:56:31;;;;;;;93.60;34.28;;;;;;;;;;5054230;28;21581;-69
2021/09/23 04:58:57;;;;;;;93.35;34.42;;;;;;;;;;5052723;28;20024;-69
2021/09/23 05:01:23;;;;;;;99.93;35.90;;;;;;;;;;5057874;28;20042;-69
2021/09/23 05:03:55;;;;;;;95.75;36.13;;;;;;;;;;5054412;28;20016;-69
2021/09/23 05:06:21;;;;;;;89.45;34.95;;;;;;;;;;5057173;28;20068;-68
2021/09/23 05:08:46;;;;;;;93.88;36.20;;;;;;;;;;5038662;28;20632;-69
2021/09/23 05:11:12;;;;;;;103.43;34.33;;;;;;;;;;5048976;28;20032;-67
2021/09/23 05:13:37;;;;;;;95.60;35.45;;;;;;;;;;5037239;28;20055;-69
2021/09/23 05:16:03;;;;;;;83.03;33.25;;;;;;;;;;5049164;28;20035;-68
2021/09/23 05:18:28;;;;;;;81.70;32.10;;;;;;;;;;5058243;28;20106;-69
2021/09/23 05:20:54;;;;;;;90.65;32.50;;;;;;;;;;5039215;28;20125;-68
2021/09/23 05:23:20;;;;;;;85.57;33.75;;;;;;;;;;5039846;28;20838;-68
2021/09/23 05:25:46;;;;;;;84.30;33.63;;;;;;;;;;5037597;28;20078;-69
2021/09/23 05:28:14;;;;;;;93.53;34.80;;;;;;;;;;5035653;28;20036;-67
2021/09/23 05:30:40;;;;;;;88.72;33.05;;;;;;;;;;5060066;27;20043;-68
2021/09/23 05:33:07;;;;;;;99.97;35.08;;;;;;;;;;5048733;28;20556;-70
2021/09/23 05:35:35;;;;;;;80.63;33.25;;;;;;;;;;5047948;28;20564;-69
2021/09/23 05:38:03;;;;;;;93.07;34.05;;;;;;;;;;5044299;28;20124;-67
2021/09/23 05:40:31;;;;;;;101.25;36.03;;;;;;;;;;5044230;28;20489;-70
2021/09/23 05:42:56;;;;;;;87.32;33.30;;;;;;;;;;5045126;28;20035;-70
2021/09/23 05:45:22;;;;;;;90.90;33.90;;;;;;;;;;5063568;28;20144;-69
2021/09/23 05:47:48;;;;;;;99.93;36.05;;;;;;;;;;5058575;28;20055;-68
2021/09/23 05:50:16;;;;;;;88.88;34.92;;;;;;;;;;5027172;28;20036;-70
2021/09/23 05:52:51;;;;;;;85.72;36.08;;;;;;;;;;5075657;28;20573;-65
2021/09/23 05:55:17;;;;;;;102.35;36.65;;;;;;;;;;5051929;27;20110;-66
2021/09/23 05:57:42;;;;;;;89.45;32.67;;;;;;;;;;5058946;28;20135;-71
2021/09/23 06:00:10;;;;;;;83.85;33.03;;;;;;;;;;5061446;28;20048;-69
2021/09/23 06:02:35;;;;;;;93.95;33.35;;;;;;;;;;5076969;28;20034;-69
2021/09/23 06:05:02;;;;;;;80.30;31.23;;;;;;;;;;5047995;28;20189;-69
2021/09/23 06:07:27;;;;;;;78.38;31.48;;;;;;;;;;5047077;28;20538;-69
2021/09/23 06:09:53;;;;;;;79.78;30.48;;;;;;;;;;5044067;28;20478;-68
2021/09/23 06:12:18;;;;;;;81.85;30.70;;;;;;;;;;5042010;28;20051;-69
2021/09/23 06:14:46;;;;;;;69.88;27.75;;;;;;;;;;5043655;28;20063;-69
2021/09/23 06:17:12;;;;;;;76.95;30.83;;;;;;;;;;5076788;28;20104;-68
2021/09/23 06:19:37;;;;;;;76.78;29.08;;;;;;;;;;5060872;28;20908;-68
2021/09/23 06:22:03;;;;;;;68.07;28.60;;;;;;;;;;5057245;28;20115;-68
2021/09/23 06:24:29;;;;;;;77.43;28.70;;;;;;;;;;5063190;28;20135;-66
2021/09/23 06:26:57;;;;;;;67.68;28.17;;;;;;;;;;5059440;28;20130;-70
2021/09/23 06:29:22;;;;;;;72.60;29.38;;;;;;;;;;5051765;28;20695;-70
2021/09/23 06:31:48;;;;;;;70.47;27.23;;;;;;;;;;5059961;28;20032;-69
2021/09/23 06:34:13;;;;;;;70.43;27.33;;;;;;;;;;5077244;28;20444;-64
2021/09/23 06:36:39;;;;;;;74.18;29.40;;;;;;;;;;5043085;28;20039;-69
2021/09/23 06:39:04;;;;;;;76.38;30.83;;;;;;;;;;5059061;28;20027;-68
2021/09/23 06:41:30;;;;;;;76.15;28.80;;;;;;;;;;5062900;28;20049;-68
2021/09/23 06:43:56;;;;;;;67.07;26.50;;;;;;;;;;5075747;28;20048;-69
2021/09/23 06:46:22;;;;;;;65.95;26.25;;;;;;;;;;5044428;28;20134;-68
2021/09/23 06:48:48;;;;;;;64.80;25.75;;;;;;;;;;5065509;28;20032;-70
2021/09/23 06:51:16;;;;;;;57.40;25.95;;;;;;;;;;5076968;28;20047;-68
2021/09/23 06:53:44;;;;;;;54.00;23.38;;;;;;;;;;5079574;28;20055;-69
2021/09/23 06:56:13;;;;;;;49.75;22.85;;;;;;;;;;5044500;28;20044;-66
2021/09/23 06:58:41;;;;;;;50.63;22.42;;;;;;;;;;5079097;28;20203;-68
2021/09/23 07:01:06;;;;;;;42.17;22.05;;;;;;;;;;5042995;28;20954;-69
2021/09/23 07:03:37;;;;;;;42.47;19.42;;;;;;;;;;5056384;28;20035;-67
2021/09/23 07:06:02;;;;;;;45.40;20.88;;;;;;;;;;5031082;28;20904;-68
2021/09/23 07:08:30;;;;;;;37.22;18.38;;;;;;;;;;5036943;28;20510;-63
2021/09/23 07:10:58;;;;;;;40.30;17.08;;;;;;;;;;5059912;28;20024;-67
2021/09/23 07:13:23;;;;;;;33.72;16.60;;;;;;;;;;5044096;28;20039;-70
2021/09/23 07:15:49;;;;;;;38.65;16.15;;;;;;;;;;5059868;28;20032;-70
2021/09/23 07:18:18;;;;;;;29.52;14.20;;;;;;;;;;5047102;28;21940;-68
2021/09/23 07:20:46;;;;;;;22.77;11.38;;;;;;;;;;5040965;28;20035;-66
2021/09/23 07:23:12;;;;;;;15.60;8.50;;;;;;;;;;5059717;28;20058;-65
2021/09/23 07:25:39;;;;;;;13.80;7.32;;;;;;;;;;5058102;28;20065;-68
2021/09/23 07:28:04;;;;;;;19.63;6.32;;;;;;;;;;5045257;27;20038;-69
2021/09/23 07:30:34;;;;;;;15.05;5.10;;;;;;;;;;5042301;28;20666;-71
2021/09/23 07:33:00;;;;;;;12.75;4.95;;;;;;;;;;5041697;28;20036;-65
2021/09/23 07:35:25;;;;;;;6.15;3.90;;;;;;;;;;5058231;28;20032;-68
2021/09/23 07:37:51;;;;;;;9.65;4.03;;;;;;;;;;5063725;28;20039;-66
2021/09/23 07:40:16;;;;;;;7.90;3.10;;;;;;;;;;5042465;28;20040;-67
2021/09/23 07:42:44;;;;;;;6.75;3.65;;;;;;;;;;5050177;28;20081;-70
2021/09/23 07:45:09;;;;;;;6.32;2.70;;;;;;;;;;5046855;28;20111;-64
2021/09/23 07:47:35;;;;;;;8.00;2.50;;;;;;;;;;5033843;28;20764;-67
2021/09/23 07:50:00;;;;;;;3.47;1.90;;;;;;;;;;5042979;28;20034;-66
2021/09/23 07:52:28;;;;;;;4.13;1.85;;;;;;;;;;5058052;28;20047;-63
2021/09/23 07:54:58;;;;;;;6.20;2.38;;;;;;;;;;5060211;28;20059;-66
2021/09/23 07:57:24;;;;;;;5.18;2.13;;;;;;;;;;5077854;28;20024;-67
2021/09/23 07:59:50;;;;;;;5.20;1.83;;;;;;;;;;5042687;28;20036;-64
2021/09/23 08:02:16;;;;;;;6.63;1.95;;;;;;;;;;5058307;28;21876;-67
2021/09/23 08:04:44;;;;;;;7.85;1.95;;;;;;;;;;5064907;28;20100;-65
2021/09/23 08:07:13;;;;;;;3.58;1.48;;;;;;;;;;5042383;28;20032;-66
2021/09/23 08:09:39;;;;;;;13.73;2.65;;;;;;;;;;5057571;28;20044;-66
2021/09/23 08:12:05;;;;;;;2.63;1.70;;;;;;;;;;5058850;28;20032;-68
2021/09/23 08:14:30;;;;;;;6.13;1.75;;;;;;;;;;5030657;28;20475;-67
2021/09/23 08:16:56;;;;;;;5.82;1.73;;;;;;;;;;5030592;28;20101;-67
2021/09/23 08:19:24;;;;;;;5.10;1.90;;;;;;;;;;5059697;28;20024;-63
2021/09/23 08:21:52;;;;;;;4.97;2.20;;;;;;;;;;5047735;28;20116;-66
2021/09/23 08:24:20;;;;;;;9.82;2.05;;;;;;;;;;5048706;28;20249;-70
2021/09/23 08:26:46;;;;;;;3.80;1.88;;;;;;;;;;5059976;28;20150;-67
2021/09/23 08:29:11;;;;;;;5.97;1.80;;;;;;;;;;5042954;28;20044;-65
2021/09/23 08:31:37;;;;;;;4.38;1.95;;;;;;;;;;5047156;28;20056;-66
2021/09/23 08:34:07;;;;;;;9.02;1.80;;;;;;;;;;5065320;28;20375;-67
2021/09/23 08:36:33;;;;;;;6.55;1.65;;;;;;;;;;5077222;28;20035;-66
2021/09/23 08:39:02;;;;;;;3.78;1.80;;;;;;;;;;5054383;28;20042;-64
2021/09/23 08:41:28;;;;;;;6.15;2.00;;;;;;;;;;5058709;28;20084;-67
2021/09/23 08:43:55;;;;;;;3.53;1.52;;;;;;;;;;5057699;28;20383;-65
2021/09/23 08:46:20;;;;;;;5.82;1.67;;;;;;;;;;5043043;28;20477;-70
2021/09/23 08:48:52;;;;;;;6.95;1.60;;;;;;;;;;5057401;28;20050;-72
2021/09/23 08:51:19;;;;;;;3.10;1.23;;;;;;;;;;5058082;28;20063;-65
2021/09/23 08:53:44;;;;;;;4.32;1.27;;;;;;;;;;5057166;28;20036;-66
2021/09/23 08:56:10;;;;;;;8.95;1.85;;;;;;;;;;5041191;28;20028;-66
2021/09/23 08:58:38;;;;;;;3.30;1.70;;;;;;;;;;5042157;28;20047;-65
2021/09/23 09:01:04;;;;;;;4.03;1.45;;;;;;;;;;5060877;28;20039;-68
2021/09/23 09:03:36;;;;;;;6.18;1.58;;;;;;;;;;5059668;28;20069;-67
2021/09/23 09:06:04;;;;;;;10.43;1.48;;;;;;;;;;5048508;28;20035;-69
2021/09/23 09:08:30;;;;;;;6.75;1.20;;;;;;;;;;5047831;28;20023;-69
2021/09/23 09:10:56;;;;;;;9.05;1.70;;;;;;;;;;5077332;28;20156;-64
2021/09/23 09:13:21;;;;;;;4.05;1.10;;;;;;;;;;5026054;28;21012;-67
2021/09/23 09:15:50;;;;;;;7.35;1.65;;;;;;;;;;5058141;28;20097;-67
2021/09/23 09:18:20;;;;;;;3.17;1.08;;;;;;;;;;5031827;28;20182;-63
2021/09/23 09:20:59;;;;;;;4.75;1.20;;;;;;;;;;5058931;28;20039;-64
2021/09/23 09:23:26;;;;;;;9.82;1.38;;;;;;;;;;5059767;28;20040;-65
2021/09/23 09:25:54;;;;;;;5.88;1.35;;;;;;;;;;5076233;28;20502;-66
2021/09/23 09:28:21;;;;;;;5.70;1.77;;;;;;;;;;5045289;28;20061;-65
2021/09/23 09:30:56;;;;;;;7.28;1.38;;;;;;;;;;5047107;28;20024;-65
2021/09/23 09:33:33;;;;;;;7.57;1.50;;;;;;;;;;5057540;28;20031;-69
2021/09/23 09:36:01;;;;;;;5.38;1.23;;;;;;;;;;5047095;28;20063;-68
2021/09/23 09:38:29;;;;;;;5.95;1.20;;;;;;;;;;5045424;28;20027;-73
2021/09/23 09:40:55;;;;;;;8.43;1.23;;;;;;;;;;5040397;28;20028;-68
2021/09/23 09:43:21;;;;;;;8.02;1.42;;;;;;;;;;5039388;28;20044;-69
2021/09/23 09:45:50;;;;;;;6.00;1.30;;;;;;;;;;5058335;28;20036;-67
2021/09/23 09:48:30;;;;;;;6.63;1.15;;;;;;;;;;5058774;28;20092;-67
2021/09/23 09:51:01;;;;;;;7.10;1.30;;;;;;;;;;5059058;28;20077;-69
2021/09/23 09:53:28;;;;;;;12.25;1.20;;;;;;;;;;5056677;28;20137;-68
2021/09/23 09:55:53;;;;;;;11.48;1.52;;;;;;;;;;5057108;28;20032;-69
2021/09/23 09:58:24;;;;;;;8.23;1.15;;;;;;;;;;5042803;28;20072;-64
2021/09/23 10:00:58;;;;;;;9.48;1.50;;;;;;;;;;5031782;28;20035;-67
2021/09/23 10:03:24;;;;;;;13.25;1.20;;;;;;;;;;5057550;28;20833;-68
2021/09/23 10:05:52;;;;;;;8.90;1.42;;;;;;;;;;5077641;28;20028;-67
2021/09/23 10:08:20;;;;;;;2.85;0.90;;;;;;;;;;5075816;28;20028;-63
2021/09/23 10:10:49;;;;;;;6.25;1.35;;;;;;;;;;5062132;28;20035;-65
2021/09/23 10:13:15;;;;;;;4.88;1.23;;;;;;;;;;5042789;28;20042;-66
2021/09/23 10:15:46;;;;;;;7.38;1.50;;;;;;;;;;5057720;28;20126;-65
2021/09/23 10:18:15;;;;;;;9.23;1.27;;;;;;;;;;5059720;28;20047;-67
2021/09/23 10:20:42;;;;;;;10.73;1.45;;;;;;;;;;5064657;28;20089;-66
2021/09/23 10:23:11;;;;;;;5.22;1.20;;;;;;;;;;5050098;28;20039;-67
2021/09/23 10:25:37;;;;;;;4.15;1.27;;;;;;;;;;5045076;28;20031;-68
2021/09/23 10:28:04;;;;;;;9.48;1.50;;;;;;;;;;5065839;28;20059;-68
2021/09/23 10:30:39;;;;;;;7.88;1.10;;;;;;;;;;5046200;28;20028;-70
2021/09/23 10:36:43;;;;;;;5.88;1.48;;;;;;;;;;5079464;28;20090;-65
2021/09/23 10:39:09;;;;;;;6.90;1.55;;;;;;;;;;5044074;28;20039;-69
2021/09/23 10:41:36;;;;;;;7.55;1.30;;;;;;;;;;5060607;28;20587;-66
2021/09/23 10:44:05;;;;;;;6.93;1.50;;;;;;;;;;5063928;28;20019;-67
2021/09/23 10:46:32;;;;;;;5.57;1.30;;;;;;;;;;5047947;28;20044;-68
2021/09/23 10:49:01;;;;;;;8.50;2.33;;;;;;;;;;5079036;28;20073;-67
2021/09/23 10:51:26;;;;;;;9.68;1.80;;;;;;;;;;5060179;28;20062;-67
2021/09/23 10:53:58;;;;;;;9.15;1.45;;;;;;;;;;5060275;28;20143;-67
2021/09/23 10:56:30;;;;;;;11.25;1.90;;;;;;;;;;5078257;28;20199;-64
2021/09/23 10:58:57;;;;;;;7.63;1.40;;;;;;;;;;5060199;28;20036;-67
2021/09/23 11:01:28;;;;;;;16.17;1.88;;;;;;;;;;5026750;28;20114;-64
2021/09/23 11:04:02;;;;;;;9.63;2.30;;;;;;;;;;5061545;28;20050;-66
2021/09/23 11:06:35;;;;;;;17.63;2.35;;;;;;;;;;5076419;28;20067;-66
2021/09/23 11:09:17;;;;;;;9.90;2.22;;;;;;;;;;5045728;28;20043;-66
2021/09/23 11:11:44;;;;;;;8.48;2.00;;;;;;;;;;5064772;28;20101;-64
2021/09/23 11:14:14;;;;;;;13.50;2.92;;;;;;;;;;5077956;28;20059;-63
2021/09/23 11:16:39;;;;;;;10.07;2.20;;;;;;;;;;5044199;28;20023;-64
2021/09/23 11:19:09;;;;;;;22.25;2.13;;;;;;;;;;5030901;28;20490;-66
2021/09/23 11:21:42;;;;;;;14.60;2.13;;;;;;;;;;5076322;28;20146;-63
2021/09/23 11:24:13;;;;;;;9.45;1.85;;;;;;;;;;5078336;28;20036;-65
2021/09/23 11:26:39;;;;;;;9.13;1.50;;;;;;;;;;5049861;28;20032;-68
2021/09/23 11:29:04;;;;;;;9.88;1.40;;;;;;;;;;5044808;28;21729;-68
2021/09/23 11:31:52;;;;;;;8.75;1.45;;;;;;;;;;5056765;28;20039;-68
2021/09/23 11:34:52;;;;;;;4.72;1.42;;;;;;;;;;5059871;28;20070;-65
2021/09/23 11:40:55;;;;;;;6.25;1.50;;;;;;;;;;5077058;27;20035;-68
2021/09/23 11:43:22;;;;;;;10.82;1.35;;;;;;;;;;5040724;28;20060;-64
2021/09/23 11:45:53;;;;;;;6.18;2.00;;;;;;;;;;5076966;28;20069;-66
2021/09/23 11:48:27;;;;;;;14.88;2.30;;;;;;;;;;5058621;28;20805;-65
2021/09/23 11:51:00;;;;;;;5.60;1.77;;;;;;;;;;5060354;28;20051;-64
2021/09/23 11:53:32;;;;;;;6.80;1.30;;;;;;;;;;5041187;28;20024;-63
2021/09/23 11:56:17;;;;;;;7.95;1.20;;;;;;;;;;5059296;28;20089;-64
2021/09/23 11:58:49;;;;;;;5.20;1.17;;;;;;;;;;5047801;28;20039;-65
2021/09/23 12:01:18;;;;;;;6.30;1.60;;;;;;;;;;5045907;28;20043;-65
2021/09/23 12:03:49;;;;;;;4.93;1.40;;;;;;;;;;5060000;28;20032;-65
2021/09/23 12:06:17;;;;;;;5.78;1.30;;;;;;;;;;5045634;28;20038;-64
2021/09/23 12:08:44;;;;;;;7.10;1.23;;;;;;;;;;5057565;28;20111;-67
2021/09/23 12:11:13;;;;;;;8.05;1.08;;;;;;;;;;5063184;28;20518;-67
2021/09/23 12:13:46;;;;;;;8.05;1.90;;;;;;;;;;5077614;28;20036;-67
2021/09/23 12:16:12;;;;;;;4.97;1.33;;;;;;;;;;5067599;28;21014;-65
2021/09/23 12:18:41;;;;;;;8.43;1.55;;;;;;;;;;5060148;28;20036;-67
2021/09/23 12:21:08;;;;;;;9.13;1.50;;;;;;;;;;5040438;28;20557;-64
2021/09/23 12:23:37;;;;;;;8.43;1.55;;;;;;;;;;5059079;28;20032;-66
2021/09/23 12:26:13;;;;;;;9.32;1.17;;;;;;;;;;5059050;28;20088;-68
2021/09/23 12:28:45;;;;;;;8.05;1.50;;;;;;;;;;5054461;28;20031;-68
2021/09/23 12:31:13;;;;;;;8.88;1.80;;;;;;;;;;5052545;28;20183;-66
2021/09/23 12:33:51;;;;;;;5.28;1.92;;;;;;;;;;5059328;28;20109;-67
2021/09/23 12:36:17;;;;;;;8.90;1.40;;;;;;;;;;5043525;28;20616;-66
2021/09/23 12:38:43;;;;;;;7.88;1.20;;;;;;;;;;5051031;27;20028;-66
2021/09/23 12:41:19;;;;;;;6.07;1.33;;;;;;;;;;5040958;28;20038;-68
2021/09/23 12:43:45;;;;;;;5.97;0.93;;;;;;;;;;5029273;27;20115;-67
2021/09/23 12:46:11;;;;;;;6.07;1.65;;;;;;;;;;5055573;28;22258;-67
2021/09/23 12:48:37;;;;;;;4.95;1.27;;;;;;;;;;5078764;28;20559;-71
2021/09/23 12:51:06;;;;;;;5.13;1.17;;;;;;;;;;5059144;28;20032;-63
2021/09/23 12:53:35;;;;;;;6.03;1.10;;;;;;;;;;5042192;28;20032;-67
2021/09/23 12:56:06;;;;;;;13.27;2.00;;;;;;;;;;5063932;28;20036;-66
2021/09/23 12:58:37;;;;;;;5.57;1.23;;;;;;;;;;5059522;28;20423;-65
2021/09/23 13:01:18;;;;;;;14.02;1.55;;;;;;;;;;5060204;28;20487;-65
2021/09/23 13:03:46;;;;;;;7.50;1.60;;;;;;;;;;5041307;28;20036;-66
2021/09/23 13:06:12;;;;;;;8.23;1.67;;;;;;;;;;5054771;28;20057;-67
2021/09/23 13:08:44;;;;;;;7.65;1.45;;;;;;;;;;5047599;28;20142;-70
2021/09/23 13:11:13;;;;;;;7.20;1.33;;;;;;;;;;5056761;28;20032;-65
2021/09/23 13:13:42;;;;;;;8.75;1.63;;;;;;;;;;5060349;28;20136;-63
2021/09/23 13:16:07;;;;;;;8.35;1.52;;;;;;;;;;5059172;28;20032;-68
2021/09/23 13:18:35;;;;;;;5.35;1.27;;;;;;;;;;5062681;28;21872;-69
2021/09/23 13:21:05;;;;;;;5.80;1.40;;;;;;;;;;5059605;28;20164;-68
2021/09/23 13:23:35;;;;;;;7.72;1.23;;;;;;;;;;5050210;28;20617;-67
2021/09/23 13:26:04;;;;;;;6.50;1.83;;;;;;;;;;5043691;28;20038;-66
2021/09/23 13:28:34;;;;;;;11.60;1.65;;;;;;;;;;5056363;28;20050;-67
2021/09/23 13:31:04;;;;;;;7.90;1.70;;;;;;;;;;5041742;28;20039;-65
2021/09/23 13:33:31;;;;;;;5.13;1.45;;;;;;;;;;5046120;28;20758;-67
2021/09/23 13:36:02;;;;;;;7.35;1.70;;;;;;;;;;5044305;28;20402;-65
2021/09/23 13:38:29;;;;;;;12.95;1.65;;;;;;;;;;5055085;28;20114;-64
2021/09/23 13:40:55;;;;;;;14.55;1.88;;;;;;;;;;5075979;28;20403;-64
2021/09/23 13:43:21;;;;;;;9.57;2.08;;;;;;;;;;5047188;28;20080;-64
2021/09/23 13:45:46;;;;;;;11.27;2.25;;;;;;;;;;5056054;28;20433;-67
2021/09/23 13:48:12;;;;;;;8.80;1.60;;;;;;;;;;5060357;28;20070;-67
2021/09/23 13:50:46;;;;;;;11.55;2.28;;;;;;;;;;5057363;28;20032;-67
2021/09/23 13:53:12;;;;;;;11.15;1.90;;;;;;;;;;5067893;28;20059;-68
2021/09/23 13:55:40;;;;;;;16.33;2.20;;;;;;;;;;5059628;28;21156;-64
2021/09/23 13:58:09;;;;;;;12.52;2.58;;;;;;;;;;5048799;28;20047;-66
2021/09/23 14:00:34;;;;;;;10.07;2.78;;;;;;;;;;5080497;27;20043;-68
2021/09/23 14:03:01;;;;;;;15.88;2.33;;;;;;;;;;5081224;28;20031;-64
2021/09/23 14:05:27;;;;;;;11.60;1.88;;;;;;;;;;5060243;28;20040;-68
2021/09/23 14:07:52;;;;;;;11.65;1.90;;;;;;;;;;5058132;28;20032;-67
2021/09/23 14:10:18;;;;;;;12.18;1.63;;;;;;;;;;5077860;28;20038;-67
2021/09/23 14:12:44;;;;;;;17.33;3.08;;;;;;;;;;5075084;28;20024;-64
2021/09/23 14:15:21;;;;;;;8.93;2.00;;;;;;;;;;5046073;28;20040;-68
2021/09/23 14:17:47;;;;;;;6.40;2.00;;;;;;;;;;5045199;28;20046;-68
2021/09/23 14:20:15;;;;;;;15.15;1.95;;;;;;;;;;5065935;28;20301;-66
2021/09/23 14:22:42;;;;;;;13.55;2.15;;;;;;;;;;5060028;28;20600;-68
2021/09/23 14:25:10;;;;;;;12.82;2.45;;;;;;;;;;5058206;28;20048;-67
2021/09/23 14:27:36;;;;;;;12.50;2.28;;;;;;;;;;5043327;28;20019;-67
2021/09/23 14:30:05;;;;;;;6.95;1.80;;;;;;;;;;5079068;28;20409;-67
2021/09/23 14:32:33;;;;;;;9.30;1.67;;;;;;;;;;5048746;28;20043;-68
2021/09/23 14:35:01;;;;;;;10.98;1.40;;;;;;;;;;5060800;28;20032;-68
2021/09/23 14:37:29;;;;;;;19.98;1.73;;;;;;;;;;5055459;28;20534;-63
2021/09/23 14:39:54;;;;;;;5.55;1.65;;;;;;;;;;5061115;28;20043;-64